sensor_id;sensor_type;location;lat;lon;timestamp;P1;durP1;ratioP1;P2;durP2;ratioP2
15616;SDS011;7908;51.688;7.130;2023-08-21T00:00:31;2.67;;;1.63;;
15616;SDS011;7908;51.688;7.130;2023-08-21T00:03:00;4.13;;;1.70;;
15616;SDS011;7908;51.688;7.130;2023-08-21T00:05:29;11.07;;;1.83;;
15616;SDS011;7908;51.688;7.130;2023-08-21T00:07:58;4.73;;;1.70;;
15616;SDS011;7908;51.688;7.130;2023-08-21T00:10:26;4.00;;;1.63;;
15616;SDS011;7908;51.688;7.130;2023-08-21T00:12:58;4.97;;;2.30;;
15616;SDS011;7908;51.688;7.130;2023-08-21T00:15:26;4.73;;;1.77;;
15616;SDS011;7908;51.688;7.130;2023-08-21T00:17:57;5.23;;;2.13;;
15616;SDS011;7908;51.688;7.130;2023-08-21T00:20:27;6.73;;;2.10;;
15616;SDS011;7908;51.688;7.130;2023-08-21T00:22:56;4.47;;;2.23;;
15616;SDS011;7908;51.688;7.130;2023-08-21T00:25:24;7.50;;;1.90;;
15616;SDS011;7908;51.688;7.130;2023-08-21T00:27:53;4.30;;;1.60;;
15616;SDS011;7908;51.688;7.130;2023-08-21T00:30:22;3.00;;;1.80;;
15616;SDS011;7908;51.688;7.130;2023-08-21T00:32:51;7.07;;;2.20;;
15616;SDS011;7908;51.688;7.130;2023-08-21T00:35:21;7.03;;;2.00;;
15616;SDS011;7908;51.688;7.130;2023-08-21T00:37:50;5.60;;;2.00;;
15616;SDS011;7908;51.688;7.130;2023-08-21T00:40:18;6.07;;;1.70;;
15616;SDS011;7908;51.688;7.130;2023-08-21T00:42:47;3.93;;;1.73;;
15616;SDS011;7908;51.688;7.130;2023-08-21T00:45:16;2.77;;;1.50;;
15616;SDS011;7908;51.688;7.130;2023-08-21T00:47:44;4.47;;;1.67;;
15616;SDS011;7908;51.688;7.130;2023-08-21T00:50:16;6.17;;;1.87;;
15616;SDS011;7908;51.688;7.130;2023-08-21T00:52:46;6.20;;;1.70;;
15616;SDS011;7908;51.688;7.130;2023-08-21T00:55:18;6.20;;;2.00;;
15616;SDS011;7908;51.688;7.130;2023-08-21T00:57:47;6.30;;;2.17;;
15616;SDS011;7908;51.688;7.130;2023-08-21T01:00:15;4.43;;;1.80;;
15616;SDS011;7908;51.688;7.130;2023-08-21T01:02:45;3.13;;;1.30;;
15616;SDS011;7908;51.688;7.130;2023-08-21T01:05:13;4.07;;;1.97;;
15616;SDS011;7908;51.688;7.130;2023-08-21T01:07:44;4.83;;;1.50;;
15616;SDS011;7908;51.688;7.130;2023-08-21T01:10:21;4.23;;;1.73;;
15616;SDS011;7908;51.688;7.130;2023-08-21T01:13:00;6.87;;;2.20;;
15616;SDS011;7908;51.688;7.130;2023-08-21T01:15:34;5.90;;;2.00;;
15616;SDS011;7908;51.688;7.130;2023-08-21T01:18:05;4.27;;;1.73;;
15616;SDS011;7908;51.688;7.130;2023-08-21T01:20:35;4.57;;;1.97;;
15616;SDS011;7908;51.688;7.130;2023-08-21T01:23:06;3.33;;;1.83;;
15616;SDS011;7908;51.688;7.130;2023-08-21T01:25:36;3.80;;;1.83;;
15616;SDS011;7908;51.688;7.130;2023-08-21T01:28:05;4.93;;;1.50;;
15616;SDS011;7908;51.688;7.130;2023-08-21T01:30:34;3.30;;;1.50;;
15616;SDS011;7908;51.688;7.130;2023-08-21T01:33:05;5.73;;;1.50;;
15616;SDS011;7908;51.688;7.130;2023-08-21T01:35:38;5.20;;;1.43;;
15616;SDS011;7908;51.688;7.130;2023-08-21T01:38:07;3.30;;;1.50;;
15616;SDS011;7908;51.688;7.130;2023-08-21T01:40:38;2.73;;;1.53;;
15616;SDS011;7908;51.688;7.130;2023-08-21T01:43:08;2.23;;;1.60;;
15616;SDS011;7908;51.688;7.130;2023-08-21T01:45:36;4.03;;;1.53;;
15616;SDS011;7908;51.688;7.130;2023-08-21T01:48:05;5.17;;;1.67;;
15616;SDS011;7908;51.688;7.130;2023-08-21T01:50:34;4.47;;;1.47;;
15616;SDS011;7908;51.688;7.130;2023-08-21T01:53:03;8.70;;;2.03;;
15616;SDS011;7908;51.688;7.130;2023-08-21T01:55:32;4.80;;;1.70;;
15616;SDS011;7908;51.688;7.130;2023-08-21T01:58:02;4.03;;;1.73;;
15616;SDS011;7908;51.688;7.130;2023-08-21T02:00:31;6.90;;;2.20;;
15616;SDS011;7908;51.688;7.130;2023-08-21T02:02:59;6.37;;;1.80;;
15616;SDS011;7908;51.688;7.130;2023-08-21T02:05:30;5.00;;;2.10;;
15616;SDS011;7908;51.688;7.130;2023-08-21T02:07:58;6.30;;;1.97;;
15616;SDS011;7908;51.688;7.130;2023-08-21T02:10:27;3.30;;;1.50;;
15616;SDS011;7908;51.688;7.130;2023-08-21T02:12:55;4.70;;;1.63;;
15616;SDS011;7908;51.688;7.130;2023-08-21T02:15:25;5.33;;;1.83;;
15616;SDS011;7908;51.688;7.130;2023-08-21T02:17:54;1.97;;;1.70;;
15616;SDS011;7908;51.688;7.130;2023-08-21T02:20:23;4.03;;;1.50;;
15616;SDS011;7908;51.688;7.130;2023-08-21T02:22:52;8.10;;;1.80;;
15616;SDS011;7908;51.688;7.130;2023-08-21T02:25:20;4.20;;;1.50;;
15616;SDS011;7908;51.688;7.130;2023-08-21T02:27:49;5.13;;;1.90;;
15616;SDS011;7908;51.688;7.130;2023-08-21T02:30:18;3.67;;;1.87;;
15616;SDS011;7908;51.688;7.130;2023-08-21T02:32:48;5.97;;;1.90;;
15616;SDS011;7908;51.688;7.130;2023-08-21T02:35:17;5.47;;;1.87;;
15616;SDS011;7908;51.688;7.130;2023-08-21T02:37:46;4.53;;;2.03;;
15616;SDS011;7908;51.688;7.130;2023-08-21T02:40:14;5.03;;;1.77;;
15616;SDS011;7908;51.688;7.130;2023-08-21T02:42:43;3.63;;;2.10;;
15616;SDS011;7908;51.688;7.130;2023-08-21T02:45:12;6.90;;;1.83;;
15616;SDS011;7908;51.688;7.130;2023-08-21T02:47:41;8.87;;;2.17;;
15616;SDS011;7908;51.688;7.130;2023-08-21T02:50:12;5.57;;;2.17;;
15616;SDS011;7908;51.688;7.130;2023-08-21T02:52:40;3.47;;;1.60;;
15616;SDS011;7908;51.688;7.130;2023-08-21T02:55:09;4.30;;;1.70;;
15616;SDS011;7908;51.688;7.130;2023-08-21T02:57:37;7.10;;;2.00;;
15616;SDS011;7908;51.688;7.130;2023-08-21T03:00:06;5.60;;;1.73;;
15616;SDS011;7908;51.688;7.130;2023-08-21T03:02:36;5.77;;;1.43;;
15616;SDS011;7908;51.688;7.130;2023-08-21T03:05:05;4.27;;;1.90;;
15616;SDS011;7908;51.688;7.130;2023-08-21T03:07:37;3.93;;;1.77;;
15616;SDS011;7908;51.688;7.130;2023-08-21T03:10:06;4.50;;;1.60;;
15616;SDS011;7908;51.688;7.130;2023-08-21T03:12:35;4.47;;;1.90;;
15616;SDS011;7908;51.688;7.130;2023-08-21T03:15:04;2.97;;;1.40;;
15616;SDS011;7908;51.688;7.130;2023-08-21T03:17:34;5.47;;;1.87;;
15616;SDS011;7908;51.688;7.130;2023-08-21T03:20:03;6.93;;;1.83;;
15616;SDS011;7908;51.688;7.130;2023-08-21T03:22:32;2.90;;;1.47;;
15616;SDS011;7908;51.688;7.130;2023-08-21T03:25:02;5.57;;;1.47;;
15616;SDS011;7908;51.688;7.130;2023-08-21T03:27:32;4.90;;;2.00;;
15616;SDS011;7908;51.688;7.130;2023-08-21T03:30:00;6.90;;;2.00;;
15616;SDS011;7908;51.688;7.130;2023-08-21T03:32:29;2.53;;;1.50;;
15616;SDS011;7908;51.688;7.130;2023-08-21T03:34:57;6.10;;;1.80;;
15616;SDS011;7908;51.688;7.130;2023-08-21T03:37:26;3.63;;;1.90;;
15616;SDS011;7908;51.688;7.130;2023-08-21T03:39:55;6.90;;;2.33;;
15616;SDS011;7908;51.688;7.130;2023-08-21T03:42:25;6.50;;;2.20;;
15616;SDS011;7908;51.688;7.130;2023-08-21T03:44:54;8.00;;;1.83;;
15616;SDS011;7908;51.688;7.130;2023-08-21T03:47:23;4.17;;;1.93;;
15616;SDS011;7908;51.688;7.130;2023-08-21T03:49:51;6.40;;;1.73;;
15616;SDS011;7908;51.688;7.130;2023-08-21T03:52:20;2.83;;;1.77;;
15616;SDS011;7908;51.688;7.130;2023-08-21T03:54:48;4.53;;;1.93;;
15616;SDS011;7908;51.688;7.130;2023-08-21T03:57:17;4.97;;;1.50;;
15616;SDS011;7908;51.688;7.130;2023-08-21T03:59:47;3.07;;;1.73;;
15616;SDS011;7908;51.688;7.130;2023-08-21T04:02:15;9.53;;;2.00;;
15616;SDS011;7908;51.688;7.130;2023-08-21T04:04:44;4.83;;;1.63;;
15616;SDS011;7908;51.688;7.130;2023-08-21T04:07:13;6.57;;;1.80;;
15616;SDS011;7908;51.688;7.130;2023-08-21T04:09:42;7.23;;;2.57;;
15616;SDS011;7908;51.688;7.130;2023-08-21T04:12:10;4.87;;;1.67;;
15616;SDS011;7908;51.688;7.130;2023-08-21T04:14:39;5.67;;;1.80;;
15616;SDS011;7908;51.688;7.130;2023-08-21T04:17:09;6.03;;;1.93;;
15616;SDS011;7908;51.688;7.130;2023-08-21T04:19:38;5.27;;;2.10;;
15616;SDS011;7908;51.688;7.130;2023-08-21T04:22:07;6.43;;;1.57;;
15616;SDS011;7908;51.688;7.130;2023-08-21T04:24:36;5.33;;;1.67;;
15616;SDS011;7908;51.688;7.130;2023-08-21T04:27:05;3.30;;;1.47;;
15616;SDS011;7908;51.688;7.130;2023-08-21T04:29:34;4.10;;;1.60;;
15616;SDS011;7908;51.688;7.130;2023-08-21T04:32:03;3.10;;;1.40;;
15616;SDS011;7908;51.688;7.130;2023-08-21T04:34:34;5.90;;;1.80;;
15616;SDS011;7908;51.688;7.130;2023-08-21T04:37:02;5.10;;;1.97;;
15616;SDS011;7908;51.688;7.130;2023-08-21T04:39:32;5.77;;;1.83;;
15616;SDS011;7908;51.688;7.130;2023-08-21T04:42:03;4.47;;;1.60;;
15616;SDS011;7908;51.688;7.130;2023-08-21T04:44:32;4.80;;;1.83;;
15616;SDS011;7908;51.688;7.130;2023-08-21T04:49:49;5.50;;;2.27;;
15616;SDS011;7908;51.688;7.130;2023-08-21T04:52:18;6.87;;;2.30;;
15616;SDS011;7908;51.688;7.130;2023-08-21T04:54:47;6.97;;;2.37;;
15616;SDS011;7908;51.688;7.130;2023-08-21T04:57:16;5.50;;;2.40;;
15616;SDS011;7908;51.688;7.130;2023-08-21T04:59:44;3.50;;;1.60;;
15616;SDS011;7908;51.688;7.130;2023-08-21T05:02:13;5.03;;;1.80;;
15616;SDS011;7908;51.688;7.130;2023-08-21T05:04:42;4.93;;;1.80;;
15616;SDS011;7908;51.688;7.130;2023-08-21T05:07:12;4.37;;;1.90;;
15616;SDS011;7908;51.688;7.130;2023-08-21T05:09:42;6.93;;;2.47;;
15616;SDS011;7908;51.688;7.130;2023-08-21T05:12:12;6.70;;;1.90;;
15616;SDS011;7908;51.688;7.130;2023-08-21T05:14:41;4.13;;;1.70;;
15616;SDS011;7908;51.688;7.130;2023-08-21T05:17:09;4.43;;;1.70;;
15616;SDS011;7908;51.688;7.130;2023-08-21T05:19:38;4.97;;;1.87;;
15616;SDS011;7908;51.688;7.130;2023-08-21T05:22:06;5.80;;;1.97;;
15616;SDS011;7908;51.688;7.130;2023-08-21T05:24:37;7.27;;;2.30;;
15616;SDS011;7908;51.688;7.130;2023-08-21T05:27:06;4.07;;;1.97;;
15616;SDS011;7908;51.688;7.130;2023-08-21T05:29:34;5.33;;;1.93;;
15616;SDS011;7908;51.688;7.130;2023-08-21T05:32:04;5.73;;;2.37;;
15616;SDS011;7908;51.688;7.130;2023-08-21T05:34:33;6.67;;;2.47;;
15616;SDS011;7908;51.688;7.130;2023-08-21T05:37:01;3.93;;;2.00;;
15616;SDS011;7908;51.688;7.130;2023-08-21T05:39:30;6.50;;;1.87;;
15616;SDS011;7908;51.688;7.130;2023-08-21T05:42:00;4.10;;;1.83;;
15616;SDS011;7908;51.688;7.130;2023-08-21T05:44:28;4.23;;;1.77;;
15616;SDS011;7908;51.688;7.130;2023-08-21T05:46:57;3.03;;;1.70;;
15616;SDS011;7908;51.688;7.130;2023-08-21T05:49:27;4.63;;;1.87;;
15616;SDS011;7908;51.688;7.130;2023-08-21T05:51:58;9.33;;;2.57;;
15616;SDS011;7908;51.688;7.130;2023-08-21T05:54:27;4.20;;;1.70;;
15616;SDS011;7908;51.688;7.130;2023-08-21T05:56:58;5.40;;;1.77;;
15616;SDS011;7908;51.688;7.130;2023-08-21T05:59:29;6.90;;;1.80;;
15616;SDS011;7908;51.688;7.130;2023-08-21T06:01:59;3.70;;;1.83;;
15616;SDS011;7908;51.688;7.130;2023-08-21T06:04:27;7.67;;;1.73;;
15616;SDS011;7908;51.688;7.130;2023-08-21T06:06:56;5.70;;;1.70;;
15616;SDS011;7908;51.688;7.130;2023-08-21T06:09:25;5.03;;;1.87;;
15616;SDS011;7908;51.688;7.130;2023-08-21T06:11:56;6.37;;;2.27;;
15616;SDS011;7908;51.688;7.130;2023-08-21T06:14:27;4.47;;;1.80;;
15616;SDS011;7908;51.688;7.130;2023-08-21T06:16:56;6.07;;;1.90;;
15616;SDS011;7908;51.688;7.130;2023-08-21T06:19:25;5.20;;;1.47;;
15616;SDS011;7908;51.688;7.130;2023-08-21T06:21:54;2.83;;;1.87;;
15616;SDS011;7908;51.688;7.130;2023-08-21T06:24:23;6.38;;;2.15;;
15616;SDS011;7908;51.688;7.130;2023-08-21T06:26:52;4.10;;;2.00;;
15616;SDS011;7908;51.688;7.130;2023-08-21T06:29:22;28.87;;;26.83;;
15616;SDS011;7908;51.688;7.130;2023-08-21T06:31:53;7.77;;;6.87;;
15616;SDS011;7908;51.688;7.130;2023-08-21T06:34:21;90.90;;;83.63;;
15616;SDS011;7908;51.688;7.130;2023-08-21T06:36:50;17.03;;;15.40;;
15616;SDS011;7908;51.688;7.130;2023-08-21T06:39:19;24.23;;;22.37;;
15616;SDS011;7908;51.688;7.130;2023-08-21T06:41:49;12.57;;;11.57;;
15616;SDS011;7908;51.688;7.130;2023-08-21T06:44:18;13.10;;;11.90;;
15616;SDS011;7908;51.688;7.130;2023-08-21T06:46:48;5.70;;;2.00;;
15616;SDS011;7908;51.688;7.130;2023-08-21T06:49:18;5.00;;;1.50;;
15616;SDS011;7908;51.688;7.130;2023-08-21T06:51:47;4.13;;;1.60;;
15616;SDS011;7908;51.688;7.130;2023-08-21T06:54:16;3.77;;;1.33;;
15616;SDS011;7908;51.688;7.130;2023-08-21T06:56:45;3.80;;;1.55;;
15616;SDS011;7908;51.688;7.130;2023-08-21T06:59:14;3.45;;;1.70;;
15616;SDS011;7908;51.688;7.130;2023-08-21T07:01:43;3.80;;;1.80;;
15616;SDS011;7908;51.688;7.130;2023-08-21T07:04:12;6.30;;;2.42;;
15616;SDS011;7908;51.688;7.130;2023-08-21T07:06:43;4.82;;;1.92;;
15616;SDS011;7908;51.688;7.130;2023-08-21T07:09:11;5.72;;;2.92;;
15616;SDS011;7908;51.688;7.130;2023-08-21T07:11:41;5.70;;;2.05;;
15616;SDS011;7908;51.688;7.130;2023-08-21T07:14:10;6.95;;;1.92;;
15616;SDS011;7908;51.688;7.130;2023-08-21T07:16:40;7.05;;;2.03;;
15616;SDS011;7908;51.688;7.130;2023-08-21T07:19:09;6.82;;;1.92;;
15616;SDS011;7908;51.688;7.130;2023-08-21T07:21:38;4.70;;;1.52;;
15616;SDS011;7908;51.688;7.130;2023-08-21T07:24:08;3.25;;;1.52;;
15616;SDS011;7908;51.688;7.130;2023-08-21T07:26:37;8.05;;;2.88;;
15616;SDS011;7908;51.688;7.130;2023-08-21T07:29:05;3.55;;;1.48;;
15616;SDS011;7908;51.688;7.130;2023-08-21T07:31:35;4.82;;;1.95;;
15616;SDS011;7908;51.688;7.130;2023-08-21T07:34:04;6.47;;;2.75;;
15616;SDS011;7908;51.688;7.130;2023-08-21T07:36:33;9.52;;;3.58;;
15616;SDS011;7908;51.688;7.130;2023-08-21T07:39:02;9.68;;;6.07;;
15616;SDS011;7908;51.688;7.130;2023-08-21T07:41:33;7.85;;;6.97;;
15616;SDS011;7908;51.688;7.130;2023-08-21T07:44:02;8.32;;;6.40;;
15616;SDS011;7908;51.688;7.130;2023-08-21T07:46:31;7.90;;;6.10;;
15616;SDS011;7908;51.688;7.130;2023-08-21T07:49:00;12.32;;;11.07;;
15616;SDS011;7908;51.688;7.130;2023-08-21T07:51:29;10.52;;;8.13;;
15616;SDS011;7908;51.688;7.130;2023-08-21T07:53:58;9.82;;;6.75;;
15616;SDS011;7908;51.688;7.130;2023-08-21T07:56:27;7.97;;;2.35;;
15616;SDS011;7908;51.688;7.130;2023-08-21T07:58:58;4.97;;;3.03;;
15616;SDS011;7908;51.688;7.130;2023-08-21T08:01:27;45.25;;;41.75;;
15616;SDS011;7908;51.688;7.130;2023-08-21T08:03:57;125.63;;;115.40;;
15616;SDS011;7908;51.688;7.130;2023-08-21T08:06:26;153.65;;;140.68;;
15616;SDS011;7908;51.688;7.130;2023-08-21T08:08:55;176.60;;;160.48;;
15616;SDS011;7908;51.688;7.130;2023-08-21T08:11:24;166.20;;;151.05;;
15616;SDS011;7908;51.688;7.130;2023-08-21T08:13:53;247.73;;;223.50;;
15616;SDS011;7908;51.688;7.130;2023-08-21T08:16:23;235.15;;;212.35;;
15616;SDS011;7908;51.688;7.130;2023-08-21T08:18:53;232.52;;;210.23;;
15616;SDS011;7908;51.688;7.130;2023-08-21T08:21:22;285.88;;;258.58;;
15616;SDS011;7908;51.688;7.130;2023-08-21T08:23:50;226.43;;;205.25;;
15616;SDS011;7908;51.688;7.130;2023-08-21T08:26:19;205.45;;;186.25;;
15616;SDS011;7908;51.688;7.130;2023-08-21T08:28:49;179.60;;;163.95;;
15616;SDS011;7908;51.688;7.130;2023-08-21T08:31:18;156.63;;;143.38;;
15616;SDS011;7908;51.688;7.130;2023-08-21T08:33:51;39.50;;;36.33;;
15616;SDS011;7908;51.688;7.130;2023-08-21T08:36:20;6.00;;;3.28;;
15616;SDS011;7908;51.688;7.130;2023-08-21T08:38:49;5.50;;;4.80;;
15616;SDS011;7908;51.688;7.130;2023-08-21T08:41:24;18.73;;;17.35;;
15616;SDS011;7908;51.688;7.130;2023-08-21T08:43:58;15.30;;;14.10;;
15616;SDS011;7908;51.688;7.130;2023-08-21T08:46:29;83.18;;;77.15;;
15616;SDS011;7908;51.688;7.130;2023-08-21T08:49:00;51.08;;;47.20;;
15616;SDS011;7908;51.688;7.130;2023-08-21T08:51:30;96.57;;;89.00;;
15616;SDS011;7908;51.688;7.130;2023-08-21T08:54:01;131.70;;;121.38;;
15616;SDS011;7908;51.688;7.130;2023-08-21T08:56:30;79.82;;;74.10;;
15616;SDS011;7908;51.688;7.130;2023-08-21T08:58:59;70.35;;;65.25;;
15616;SDS011;7908;51.688;7.130;2023-08-21T09:01:28;100.15;;;92.45;;
15616;SDS011;7908;51.688;7.130;2023-08-21T09:03:57;99.45;;;91.93;;
15616;SDS011;7908;51.688;7.130;2023-08-21T09:06:28;142.60;;;131.05;;
15616;SDS011;7908;51.688;7.130;2023-08-21T09:08:58;160.23;;;146.88;;
15616;SDS011;7908;51.688;7.130;2023-08-21T09:11:27;19.58;;;17.85;;
15616;SDS011;7908;51.688;7.130;2023-08-21T09:13:56;128.95;;;118.95;;
15616;SDS011;7908;51.688;7.130;2023-08-21T09:16:26;110.03;;;101.43;;
15616;SDS011;7908;51.688;7.130;2023-08-21T09:18:55;158.73;;;145.75;;
15616;SDS011;7908;51.688;7.130;2023-08-21T09:21:26;24.23;;;22.45;;
15616;SDS011;7908;51.688;7.130;2023-08-21T09:23:57;70.70;;;65.70;;
15616;SDS011;7908;51.688;7.130;2023-08-21T09:26:27;59.83;;;55.72;;
15616;SDS011;7908;51.688;7.130;2023-08-21T09:28:59;35.78;;;33.38;;
15616;SDS011;7908;51.688;7.130;2023-08-21T09:31:32;7.75;;;7.03;;
15616;SDS011;7908;51.688;7.130;2023-08-21T09:34:06;6.40;;;3.92;;
15616;SDS011;7908;51.688;7.130;2023-08-21T09:36:36;4.50;;;3.33;;
15616;SDS011;7908;51.688;7.130;2023-08-21T09:39:07;5.90;;;2.88;;
15616;SDS011;7908;51.688;7.130;2023-08-21T09:41:45;3.22;;;1.90;;
15616;SDS011;7908;51.688;7.130;2023-08-21T09:44:24;5.22;;;1.88;;
15616;SDS011;7908;51.688;7.130;2023-08-21T09:46:53;3.20;;;2.22;;
15616;SDS011;7908;51.688;7.130;2023-08-21T09:49:22;6.30;;;4.05;;
15616;SDS011;7908;51.688;7.130;2023-08-21T09:51:52;5.32;;;4.97;;
15616;SDS011;7908;51.688;7.130;2023-08-21T09:54:23;9.68;;;8.10;;
15616;SDS011;7908;51.688;7.130;2023-08-21T09:56:52;20.85;;;19.30;;
15616;SDS011;7908;51.688;7.130;2023-08-21T09:59:22;32.25;;;30.02;;
15616;SDS011;7908;51.688;7.130;2023-08-21T10:01:53;18.13;;;16.70;;
15616;SDS011;7908;51.688;7.130;2023-08-21T10:04:23;17.58;;;16.02;;
15616;SDS011;7908;51.688;7.130;2023-08-21T10:06:56;22.83;;;21.10;;
15616;SDS011;7908;51.688;7.130;2023-08-21T10:09:27;41.65;;;38.75;;
15616;SDS011;7908;51.688;7.130;2023-08-21T10:11:58;36.78;;;34.10;;
15616;SDS011;7908;51.688;7.130;2023-08-21T10:14:28;42.97;;;39.85;;
15616;SDS011;7908;51.688;7.130;2023-08-21T10:16:58;41.60;;;38.80;;
15616;SDS011;7908;51.688;7.130;2023-08-21T10:19:30;24.25;;;22.35;;
15616;SDS011;7908;51.688;7.130;2023-08-21T10:22:01;8.77;;;7.95;;
15616;SDS011;7908;51.688;7.130;2023-08-21T10:24:33;8.68;;;7.80;;
15616;SDS011;7908;51.688;7.130;2023-08-21T10:27:06;11.23;;;10.18;;
15616;SDS011;7908;51.688;7.130;2023-08-21T10:29:35;14.65;;;13.57;;
15616;SDS011;7908;51.688;7.130;2023-08-21T10:32:06;10.30;;;9.27;;
15616;SDS011;7908;51.688;7.130;2023-08-21T10:34:37;5.22;;;3.60;;
15616;SDS011;7908;51.688;7.130;2023-08-21T10:37:08;4.65;;;3.45;;
15616;SDS011;7908;51.688;7.130;2023-08-21T10:39:40;6.97;;;6.22;;
15616;SDS011;7908;51.688;7.130;2023-08-21T10:42:36;7.93;;;7.20;;
15616;SDS011;7908;51.688;7.130;2023-08-21T10:45:11;12.43;;;11.38;;
15616;SDS011;7908;51.688;7.130;2023-08-21T10:47:42;9.07;;;8.35;;
15616;SDS011;7908;51.688;7.130;2023-08-21T10:50:13;12.02;;;10.95;;
15616;SDS011;7908;51.688;7.130;2023-08-21T10:52:44;11.93;;;10.93;;
15616;SDS011;7908;51.688;7.130;2023-08-21T10:55:14;26.35;;;24.33;;
15616;SDS011;7908;51.688;7.130;2023-08-21T10:57:46;17.00;;;15.50;;
15616;SDS011;7908;51.688;7.130;2023-08-21T11:00:16;12.65;;;11.40;;
15616;SDS011;7908;51.688;7.130;2023-08-21T11:02:48;9.75;;;9.00;;
15616;SDS011;7908;51.688;7.130;2023-08-21T11:05:19;12.65;;;11.80;;
15616;SDS011;7908;51.688;7.130;2023-08-21T11:07:50;15.82;;;14.52;;
15616;SDS011;7908;51.688;7.130;2023-08-21T11:10:21;18.30;;;17.00;;
15616;SDS011;7908;51.688;7.130;2023-08-21T11:12:53;13.45;;;12.40;;
15616;SDS011;7908;51.688;7.130;2023-08-21T11:15:24;13.45;;;12.32;;
15616;SDS011;7908;51.688;7.130;2023-08-21T11:17:54;11.55;;;10.57;;
15616;SDS011;7908;51.688;7.130;2023-08-21T11:20:27;12.68;;;10.68;;
15616;SDS011;7908;51.688;7.130;2023-08-21T11:22:58;16.73;;;15.48;;
15616;SDS011;7908;51.688;7.130;2023-08-21T11:25:29;18.60;;;17.25;;
15616;SDS011;7908;51.688;7.130;2023-08-21T11:28:00;20.15;;;18.63;;
15616;SDS011;7908;51.688;7.130;2023-08-21T11:30:30;22.58;;;21.05;;
15616;SDS011;7908;51.688;7.130;2023-08-21T11:33:06;17.83;;;16.23;;
15616;SDS011;7908;51.688;7.130;2023-08-21T11:35:36;17.80;;;16.60;;
15616;SDS011;7908;51.688;7.130;2023-08-21T11:38:14;16.05;;;15.00;;
15616;SDS011;7908;51.688;7.130;2023-08-21T11:40:51;19.50;;;18.10;;
15616;SDS011;7908;51.688;7.130;2023-08-21T11:43:21;12.20;;;11.32;;
15616;SDS011;7908;51.688;7.130;2023-08-21T11:45:50;9.82;;;9.00;;
15616;SDS011;7908;51.688;7.130;2023-08-21T11:48:24;12.05;;;11.00;;
15616;SDS011;7908;51.688;7.130;2023-08-21T11:50:54;12.10;;;11.13;;
15616;SDS011;7908;51.688;7.130;2023-08-21T11:53:32;17.17;;;15.75;;
15616;SDS011;7908;51.688;7.130;2023-08-21T11:56:09;10.85;;;9.98;;
15616;SDS011;7908;51.688;7.130;2023-08-21T11:58:39;8.35;;;7.22;;
15616;SDS011;7908;51.688;7.130;2023-08-21T12:01:10;12.63;;;11.65;;
15616;SDS011;7908;51.688;7.130;2023-08-21T12:03:44;13.88;;;12.60;;
15616;SDS011;7908;51.688;7.130;2023-08-21T12:06:13;13.27;;;12.18;;
15616;SDS011;7908;51.688;7.130;2023-08-21T12:08:43;15.75;;;14.43;;
15616;SDS011;7908;51.688;7.130;2023-08-21T12:11:13;14.48;;;13.43;;
15616;SDS011;7908;51.688;7.130;2023-08-21T12:13:42;9.63;;;8.73;;
15616;SDS011;7908;51.688;7.130;2023-08-21T12:16:11;10.48;;;8.85;;
15616;SDS011;7908;51.688;7.130;2023-08-21T12:18:40;5.70;;;5.15;;
15616;SDS011;7908;51.688;7.130;2023-08-21T12:21:10;5.57;;;4.68;;
15616;SDS011;7908;51.688;7.130;2023-08-21T12:23:40;6.93;;;5.53;;
15616;SDS011;7908;51.688;7.130;2023-08-21T12:26:11;4.35;;;3.90;;
15616;SDS011;7908;51.688;7.130;2023-08-21T12:28:46;4.55;;;2.70;;
15616;SDS011;7908;51.688;7.130;2023-08-21T12:31:15;5.03;;;2.60;;
15616;SDS011;7908;51.688;7.130;2023-08-21T12:33:44;7.00;;;3.20;;
15616;SDS011;7908;51.688;7.130;2023-08-21T12:36:13;3.85;;;3.33;;
15616;SDS011;7908;51.688;7.130;2023-08-21T12:38:44;5.70;;;5.20;;
15616;SDS011;7908;51.688;7.130;2023-08-21T12:41:16;5.93;;;5.43;;
15616;SDS011;7908;51.688;7.130;2023-08-21T12:43:45;7.47;;;6.80;;
15616;SDS011;7908;51.688;7.130;2023-08-21T12:46:14;9.35;;;8.60;;
15616;SDS011;7908;51.688;7.130;2023-08-21T12:48:43;10.20;;;9.38;;
15616;SDS011;7908;51.688;7.130;2023-08-21T12:51:12;10.13;;;9.32;;
15616;SDS011;7908;51.688;7.130;2023-08-21T12:53:44;6.50;;;5.97;;
15616;SDS011;7908;51.688;7.130;2023-08-21T12:56:16;16.00;;;14.50;;
15616;SDS011;7908;51.688;7.130;2023-08-21T12:58:45;11.15;;;10.07;;
15616;SDS011;7908;51.688;7.130;2023-08-21T13:01:15;9.25;;;6.93;;
15616;SDS011;7908;51.688;7.130;2023-08-21T13:03:44;8.55;;;4.93;;
15616;SDS011;7908;51.688;7.130;2023-08-21T13:06:14;7.07;;;5.57;;
15616;SDS011;7908;51.688;7.130;2023-08-21T13:08:43;10.68;;;9.93;;
15616;SDS011;7908;51.688;7.130;2023-08-21T13:11:13;13.75;;;12.85;;
15616;SDS011;7908;51.688;7.130;2023-08-21T13:13:44;9.25;;;8.48;;
15616;SDS011;7908;51.688;7.130;2023-08-21T13:16:13;6.03;;;3.95;;
15616;SDS011;7908;51.688;7.130;2023-08-21T13:18:42;6.28;;;4.80;;
15616;SDS011;7908;51.688;7.130;2023-08-21T13:21:14;9.43;;;8.48;;
15616;SDS011;7908;51.688;7.130;2023-08-21T13:23:43;8.30;;;7.50;;
15616;SDS011;7908;51.688;7.130;2023-08-21T13:26:13;12.00;;;10.85;;
15616;SDS011;7908;51.688;7.130;2023-08-21T13:28:44;15.48;;;14.25;;
15616;SDS011;7908;51.688;7.130;2023-08-21T13:31:13;8.15;;;7.40;;
15616;SDS011;7908;51.688;7.130;2023-08-21T13:33:44;10.68;;;9.82;;
15616;SDS011;7908;51.688;7.130;2023-08-21T13:36:17;11.18;;;10.18;;
15616;SDS011;7908;51.688;7.130;2023-08-21T13:38:50;8.50;;;6.88;;
15616;SDS011;7908;51.688;7.130;2023-08-21T13:41:22;12.50;;;11.52;;
15616;SDS011;7908;51.688;7.130;2023-08-21T13:43:57;8.27;;;7.45;;
15616;SDS011;7908;51.688;7.130;2023-08-21T13:46:32;7.22;;;6.00;;
15616;SDS011;7908;51.688;7.130;2023-08-21T13:49:02;6.43;;;5.80;;
15616;SDS011;7908;51.688;7.130;2023-08-21T13:51:31;10.75;;;7.57;;
15616;SDS011;7908;51.688;7.130;2023-08-21T13:54:00;8.95;;;8.18;;
15616;SDS011;7908;51.688;7.130;2023-08-21T13:56:31;7.80;;;7.25;;
15616;SDS011;7908;51.688;7.130;2023-08-21T13:59:03;13.80;;;12.70;;
15616;SDS011;7908;51.688;7.130;2023-08-21T14:01:32;9.75;;;8.98;;
15616;SDS011;7908;51.688;7.130;2023-08-21T14:04:04;11.70;;;10.60;;
15616;SDS011;7908;51.688;7.130;2023-08-21T14:06:34;18.60;;;17.05;;
15616;SDS011;7908;51.688;7.130;2023-08-21T14:09:04;22.02;;;19.50;;
15616;SDS011;7908;51.688;7.130;2023-08-21T14:11:36;20.15;;;18.77;;
15616;SDS011;7908;51.688;7.130;2023-08-21T14:25:28;6.90;;;6.47;;
15616;SDS011;7908;51.688;7.130;2023-08-21T14:27:59;6.03;;;4.30;;
15616;SDS011;7908;51.688;7.130;2023-08-21T14:30:28;4.65;;;3.30;;
15616;SDS011;7908;51.688;7.130;2023-08-21T14:33:03;3.63;;;1.98;;
15616;SDS011;7908;51.688;7.130;2023-08-21T14:35:33;5.13;;;2.00;;
15616;SDS011;7908;51.688;7.130;2023-08-21T14:38:02;7.97;;;1.85;;
15616;SDS011;7908;51.688;7.130;2023-08-21T14:40:34;7.45;;;1.90;;
15616;SDS011;7908;51.688;7.130;2023-08-21T14:43:04;4.22;;;1.77;;
15616;SDS011;7908;51.688;7.130;2023-08-21T14:45:34;6.15;;;1.90;;
15616;SDS011;7908;51.688;7.130;2023-08-21T14:48:03;4.90;;;1.50;;
15616;SDS011;7908;51.688;7.130;2023-08-21T14:50:33;3.53;;;1.45;;
15616;SDS011;7908;51.688;7.130;2023-08-21T14:53:05;3.72;;;1.80;;
15616;SDS011;7908;51.688;7.130;2023-08-21T14:55:40;3.47;;;1.33;;
15616;SDS011;7908;51.688;7.130;2023-08-21T14:58:08;4.00;;;1.60;;
15616;SDS011;7908;51.688;7.130;2023-08-21T15:00:38;7.10;;;1.83;;
15616;SDS011;7908;51.688;7.130;2023-08-21T15:03:06;5.45;;;2.05;;
15616;SDS011;7908;51.688;7.130;2023-08-21T15:05:35;6.10;;;1.70;;
15616;SDS011;7908;51.688;7.130;2023-08-21T15:08:05;8.48;;;1.92;;
15616;SDS011;7908;51.688;7.130;2023-08-21T15:10:34;4.78;;;2.10;;
15616;SDS011;7908;51.688;7.130;2023-08-21T15:13:06;4.95;;;2.20;;
15616;SDS011;7908;51.688;7.130;2023-08-21T15:15:40;5.47;;;1.90;;
15616;SDS011;7908;51.688;7.130;2023-08-21T15:18:20;5.28;;;1.95;;
15616;SDS011;7908;51.688;7.130;2023-08-21T15:20:51;4.05;;;2.47;;
15616;SDS011;7908;51.688;7.130;2023-08-21T15:23:21;4.25;;;1.95;;